Time;durP1;ratioP1;P1;durP2;ratioP2;P2;SDS_P1;SDS_P2;PMS_P1;PMS_P2;Temp;Humidity;BMP_temperature;BMP_pressure;BME280_temperature;BME280_humidity;BME280_pressure;Samples;Min_cycle;Max_cycle;Signal;HPM_P1;HPM_P2
2023/04/10 00:00:38;;;;;;;40.53;33.03;;;6.00;99.90;;;-141.84;77.54;19354.56;5069458;28;20227;-60
2023/04/10 00:03:06;;;;;;;40.60;34.07;;;5.90;99.90;;;-141.84;77.72;19346.44;5068114;28;20626;-59
2023/04/10 00:05:35;;;;;;;39.07;32.87;;;5.90;99.90;;;-141.84;77.67;19370.81;5069809;28;20315;-61
2023/04/10 00:08:03;;;;;;;41.47;34.13;;;5.90;99.90;;;-141.84;77.25;19315.94;5050458;28;20332;-59
2023/04/10 00:10:32;;;;;;;40.93;33.77;;;5.90;99.90;;;-141.84;77.09;19366.75;5051827;28;20216;-61
2023/04/10 00:13:02;;;;;;;38.77;32.20;;;5.90;99.90;;;-141.84;76.77;19378.94;5057690;28;20205;-60
2023/04/10 00:15:31;;;;;;;40.20;32.83;;;5.90;99.90;;;-141.84;76.87;19352.53;5071814;28;20236;-61
2023/04/10 00:18:00;;;;;;;41.97;33.37;;;6.00;99.90;;;-141.84;76.89;19352.53;5071702;28;20237;-60
2023/04/10 00:20:28;;;;;;;38.50;32.77;;;6.00;99.90;;;-141.84;77.37;19358.63;5071491;28;20228;-61
2023/04/10 00:22:56;;;;;;;43.67;34.10;;;5.90;99.90;;;-141.84;77.56;19332.19;5070962;28;20226;-60
2023/04/10 00:25:25;;;;;;;40.23;32.07;;;5.90;99.90;;;-141.84;77.65;19317.97;5071959;28;20243;-61
2023/04/10 00:27:54;;;;;;;41.80;33.93;;;5.80;99.90;;;-141.84;77.50;19330.16;5070781;28;20244;-60
2023/04/10 00:30:22;;;;;;;38.67;32.60;;;5.80;99.90;;;-141.84;77.24;19311.88;5071466;28;20232;-61
2023/04/10 00:32:51;;;;;;;41.37;32.90;;;5.80;99.90;;;-141.84;77.75;19326.09;5071067;28;20627;-62
2023/04/10 00:35:20;;;;;;;40.07;33.53;;;5.70;99.90;;;-141.84;78.16;19307.81;5071250;28;20228;-61
2023/04/10 00:37:49;;;;;;;45.27;36.40;;;5.70;99.90;;;-141.84;78.31;19334.22;5070515;28;20227;-61
2023/04/10 00:40:17;;;;;;;45.03;36.37;;;5.70;99.90;;;-141.84;78.75;19293.59;5071625;28;20865;-61
2023/04/10 00:42:45;;;;;;;43.80;35.57;;;5.60;99.90;;;-141.84;78.85;19299.69;5072698;28;20223;-60
2023/04/10 00:45:13;;;;;;;44.10;35.67;;;5.60;99.90;;;-141.84;78.59;19326.09;5091326;28;20234;-60
2023/04/10 00:47:41;;;;;;;40.83;34.13;;;5.60;99.90;;;-141.84;78.92;19301.72;5051187;28;20228;-60
2023/04/10 00:50:11;;;;;;;40.50;33.37;;;5.60;99.90;;;-141.84;79.08;19291.56;5051370;28;20280;-61
2023/04/10 00:52:40;;;;;;;43.17;34.20;;;5.60;99.90;;;-141.84;79.24;19336.25;5050616;28;20208;-63
2023/04/10 00:55:10;;;;;;;41.33;32.73;;;5.50;99.90;;;-141.84;79.04;19307.81;5071302;28;20197;-59
2023/04/10 00:57:39;;;;;;;40.50;33.30;;;5.50;99.90;;;-141.84;79.29;19295.63;5070667;28;20231;-60
2023/04/10 01:00:09;;;;;;;40.80;33.87;;;5.50;99.90;;;-141.84;79.23;19295.63;5070564;28;20231;-61
2023/04/10 01:02:38;;;;;;;41.10;32.73;;;5.50;99.90;;;-141.84;79.01;19271.25;5071134;28;20246;-61
2023/04/10 01:05:09;;;;;;;41.30;33.77;;;5.50;99.90;;;-141.84;79.16;19309.84;5071048;28;20598;-59
2023/04/10 01:07:58;;;;;;;44.67;34.20;;;5.40;99.90;;;-141.84;78.85;19291.56;5055476;28;20210;-61
2023/04/10 01:10:36;;;;;;;39.13;31.83;;;5.50;99.90;;;-141.84;78.50;19334.22;5050905;28;20185;-61
2023/04/10 01:13:16;;;;;;;41.23;33.27;;;5.50;99.90;;;-141.84;78.36;19293.59;5057231;28;20212;-60
2023/04/10 01:15:53;;;;;;;37.00;31.37;;;5.50;99.90;;;-141.84;78.13;19328.13;5070227;28;20636;-61
2023/04/10 01:18:31;;;;;;;38.57;32.03;;;5.50;99.90;;;-141.84;78.42;19287.50;5070388;28;20806;-60
2023/04/10 01:21:08;;;;;;;40.50;32.70;;;5.50;99.90;;;-141.84;78.93;19293.59;5069782;28;20235;-60
2023/04/10 01:24:05;;;;;;;40.20;32.27;;;5.50;99.90;;;-141.84;79.29;19338.28;5070357;28;20266;-61
2023/04/10 01:27:04;;;;;;;38.30;31.77;;;5.40;99.90;;;-141.84;79.71;19283.44;5070618;28;20610;-60
2023/04/10 01:29:36;;;;;;;39.67;32.67;;;5.30;99.90;;;-141.84;79.97;19281.41;5070079;28;20235;-59
2023/04/10 01:32:12;;;;;;;41.93;31.63;;;5.30;99.90;;;-141.84;79.94;19244.81;5070601;28;20240;-60
2023/04/10 01:34:46;;;;;;;40.30;31.77;;;5.30;99.90;;;-141.84;79.90;19261.06;5070425;28;20195;-59
2023/04/10 01:37:21;;;;;;;38.60;31.73;;;5.30;99.90;;;-141.84;79.70;19285.47;5070131;28;20696;-59
2023/04/10 01:39:58;;;;;;;38.43;29.90;;;5.30;99.90;;;-141.84;79.37;19287.50;5079204;28;20223;-62
2023/04/10 01:42:31;;;;;;;38.50;30.80;;;5.30;99.90;;;-141.84;79.56;19240.75;5088798;28;20240;-60
2023/04/10 01:45:03;;;;;;;41.50;33.07;;;5.20;99.90;;;-141.84;79.83;19254.97;5069983;28;20236;-61
2023/04/10 01:47:33;;;;;;;40.57;31.70;;;5.20;99.90;;;-141.84;79.74;19265.13;5051299;28;20237;-59
2023/04/10 01:50:03;;;;;;;36.67;29.67;;;5.20;99.90;;;-141.84;79.16;19285.47;5050213;28;20228;-60
2023/04/10 01:52:33;;;;;;;35.77;29.97;;;5.20;99.90;;;-141.84;79.10;19301.72;5049826;28;20213;-61
2023/04/10 01:55:03;;;;;;;38.03;29.80;;;5.20;99.90;;;-141.84;79.45;19271.25;5069268;28;20472;-59
2023/04/10 01:57:32;;;;;;;37.10;30.00;;;5.20;99.90;;;-141.84;79.77;19261.06;5069636;28;20220;-61
2023/04/10 02:00:01;;;;;;;38.70;31.50;;;5.20;99.90;;;-141.84;79.91;19275.31;5069468;28;20575;-60
2023/04/10 02:02:31;;;;;;;38.30;31.30;;;5.10;99.90;;;-141.84;79.77;19283.44;5069959;28;20247;-61
2023/04/10 02:05:00;;;;;;;35.90;29.67;;;5.10;99.90;;;-141.84;79.77;19236.69;5069701;28;20223;-61
2023/04/10 02:07:39;;;;;;;36.63;29.60;;;5.10;99.90;;;-141.84;80.00;19271.25;5055593;28;20686;-61
2023/04/10 02:10:13;;;;;;;36.10;29.33;;;5.00;99.90;;;-141.84;80.02;19269.22;5050546;28;20231;-59
2023/04/10 02:12:52;;;;;;;37.73;29.43;;;5.00;99.90;;;-141.84;79.38;19263.09;5052926;28;20222;-61
2023/04/10 02:15:27;;;;;;;35.77;29.20;;;5.10;99.90;;;-141.84;78.52;19228.56;5069623;28;20242;-60
2023/04/10 02:17:58;;;;;;;37.37;28.57;;;5.10;99.90;;;-141.84;78.24;19212.31;5070000;28;20226;-60
2023/04/10 02:20:27;;;;;;;35.17;28.63;;;5.10;99.90;;;-141.84;78.53;19238.72;5069335;28;20236;-60
2023/04/10 02:22:58;;;;;;;37.23;30.07;;;5.00;99.90;;;-141.84;79.28;19269.22;5069448;28;20220;-59
2023/04/10 02:25:26;;;;;;;35.20;28.13;;;5.00;99.90;;;-141.84;79.61;19236.69;5069641;28;20236;-61
2023/04/10 02:27:54;;;;;;;38.37;28.73;;;4.90;99.90;;;-141.84;79.77;19234.66;5069135;28;20211;-61
2023/04/10 02:30:24;;;;;;;35.63;28.67;;;4.90;99.90;;;-141.84;79.74;19230.59;5064025;28;20493;-60
2023/04/10 02:32:52;;;;;;;36.13;28.80;;;4.90;99.90;;;-141.84;79.39;19250.91;5072907;28;20222;-59
2023/04/10 02:35:21;;;;;;;37.97;27.80;;;4.90;99.90;;;-141.84;79.06;19232.63;5073329;28;20251;-61
2023/04/10 02:37:49;;;;;;;35.40;28.00;;;4.90;99.90;;;-141.84;78.38;19289.53;5073202;28;20235;-60
2023/04/10 02:40:17;;;;;;;33.10;26.30;;;4.90;99.90;;;-141.84;77.93;19269.22;5073180;28;20241;-60
2023/04/10 02:42:46;;;;;;;37.63;28.87;;;5.00;99.90;;;-141.84;77.83;19246.84;5072485;28;20224;-60
2023/04/10 02:45:14;;;;;;;32.93;26.07;;;5.00;99.90;;;-141.84;78.15;19220.44;5073325;28;20230;-60
2023/04/10 02:47:44;;;;;;;34.93;27.20;;;4.90;99.90;;;-141.84;78.70;19250.91;5053581;28;20228;-61
2023/04/10 02:50:12;;;;;;;32.27;27.03;;;4.90;99.90;;;-141.84;79.30;19273.28;5053225;28;20232;-60
2023/04/10 02:52:41;;;;;;;36.43;28.40;;;4.80;99.90;;;-141.84;79.33;19246.84;5053004;28;20701;-60
2023/04/10 02:55:10;;;;;;;32.17;26.27;;;4.80;99.90;;;-141.84;79.49;19220.44;5073770;28;20203;-60
2023/04/10 02:57:38;;;;;;;33.97;26.73;;;4.80;99.90;;;-141.84;79.79;19208.25;5073010;28;20235;-60
2023/04/10 03:00:09;;;;;;;32.83;26.50;;;4.70;99.90;;;-141.84;79.62;19261.06;5072718;28;20220;-60
2023/04/10 03:02:37;;;;;;;31.77;25.60;;;4.70;99.90;;;-141.84;79.29;19254.97;5073385;28;20249;-60
2023/04/10 03:05:08;;;;;;;34.27;26.77;;;4.70;99.90;;;-141.84;79.52;19218.41;5072785;28;20255;-60
2023/04/10 03:07:36;;;;;;;34.33;25.97;;;4.70;99.90;;;-141.84;79.88;19232.63;5058426;28;20205;-60
2023/04/10 03:10:05;;;;;;;32.37;26.33;;;4.70;99.90;;;-141.84;79.74;19263.09;5053790;28;20216;-59
2023/04/10 03:12:33;;;;;;;30.90;25.57;;;4.70;99.90;;;-141.84;79.51;19234.66;5052973;28;20232;-61
2023/04/10 03:15:01;;;;;;;34.10;26.97;;;4.70;99.90;;;-141.84;79.26;19216.38;5052735;28;20241;-60
2023/04/10 03:17:29;;;;;;;34.23;26.97;;;4.70;99.90;;;-141.84;79.38;19220.44;5053088;28;20227;-60
2023/04/10 03:19:58;;;;;;;32.03;25.83;;;4.70;99.90;;;-141.84;79.81;19222.47;5052351;28;20228;-60
2023/04/10 03:22:30;;;;;;;31.97;26.53;;;4.60;99.90;;;-141.84;79.82;19208.25;5072947;28;20202;-62
2023/04/10 03:24:59;;;;;;;31.50;25.67;;;4.60;99.90;;;-141.84;79.63;19234.66;5073048;28;20843;-61
2023/04/10 03:27:27;;;;;;;34.40;26.60;;;4.50;99.90;;;-141.84;79.42;19242.78;5071938;28;20249;-60
2023/04/10 03:29:56;;;;;;;35.00;26.90;;;4.60;99.90;;;-141.84;79.25;19216.38;5072524;28;20233;-59
2023/04/10 03:32:24;;;;;;;31.43;25.43;;;4.60;99.90;;;-141.84;79.02;19240.75;5082568;28;20235;-61
2023/04/10 03:34:52;;;;;;;31.37;24.77;;;4.60;99.90;;;-141.84;78.92;19224.50;5092562;28;20222;-61
2023/04/10 03:37:20;;;;;;;34.90;26.10;;;4.60;99.90;;;-141.84;78.95;19246.84;5092886;28;20621;-60
2023/04/10 03:39:49;;;;;;;30.63;24.80;;;4.60;99.90;;;-141.84;78.55;19226.53;5093042;28;20666;-58
2023/04/10 03:42:18;;;;;;;29.83;24.00;;;4.60;99.90;;;-141.84;78.50;19202.16;5092666;28;20246;-60
2023/04/10 03:44:46;;;;;;;29.47;23.40;;;4.60;99.90;;;-141.84;78.04;19212.31;5075356;28;20234;-59
2023/04/10 03:47:14;;;;;;;30.73;24.03;;;4.60;99.90;;;-141.84;77.15;19208.25;5057582;28;20243;-59
2023/04/10 03:49:42;;;;;;;29.20;23.03;;;4.70;99.90;;;-141.84;76.97;19232.63;5052075;28;20253;-61
2023/04/10 03:52:10;;;;;;;30.13;23.23;;;4.70;99.90;;;-141.84;77.52;19185.88;5053024;28;20197;-59
2023/04/10 03:54:39;;;;;;;31.10;23.07;;;4.60;99.90;;;-141.84;77.69;19216.38;5068458;28;20235;-60
2023/04/10 03:57:08;;;;;;;30.93;23.20;;;4.60;99.90;;;-141.84;77.74;19208.25;5072377;28;20235;-60
2023/04/10 03:59:36;;;;;;;28.10;23.13;;;4.60;99.90;;;-141.84;77.48;19216.38;5072050;28;20637;-59
2023/04/10 04:02:07;;;;;;;29.70;22.90;;;4.60;99.90;;;-141.84;77.81;19202.16;5052260;28;20232;-59
2023/04/10 04:04:35;;;;;;;30.80;23.03;;;4.60;99.90;;;-141.84;78.09;19218.41;5052370;28;20202;-61
2023/04/10 04:07:04;;;;;;;27.93;22.43;;;4.50;99.90;;;-141.84;77.76;19224.50;5053537;28;20204;-59
2023/04/10 04:09:32;;;;;;;28.50;23.00;;;4.50;99.90;;;-141.84;77.30;19248.88;5051982;28;20232;-60
2023/04/10 04:12:00;;;;;;;29.27;22.43;;;4.60;99.90;;;-141.84;77.58;19224.50;5051798;28;20505;-61
2023/04/10 04:14:29;;;;;;;26.97;21.73;;;4.50;99.90;;;-141.84;77.77;19187.91;5067235;28;20740;-59
2023/04/10 04:16:57;;;;;;;27.13;21.53;;;4.50;99.90;;;-141.84;77.74;19242.78;5071669;28;20719;-60
2023/04/10 04:19:26;;;;;;;24.93;20.17;;;4.50;99.90;;;-141.84;77.96;19228.56;5071428;28;20632;-60
2023/04/10 04:21:54;;;;;;;27.87;21.67;;;4.50;99.90;;;-141.84;77.86;19212.31;5072247;28;20220;-60
2023/04/10 04:24:22;;;;;;;28.77;21.70;;;4.50;99.90;;;-141.84;77.24;19254.97;5071644;28;20246;-61
2023/04/10 04:26:50;;;;;;;26.60;20.87;;;4.60;99.90;;;-141.84;77.60;19206.22;5071608;28;20223;-60
2023/04/10 04:29:18;;;;;;;27.50;21.27;;;4.50;99.90;;;-141.84;77.51;19234.66;5085897;28;20231;-61
2023/04/10 04:31:48;;;;;;;28.60;21.43;;;4.60;99.90;;;-141.84;77.45;19232.63;5091992;28;20231;-60
2023/04/10 04:34:16;;;;;;;26.83;20.20;;;4.60;99.90;;;-141.84;77.83;19189.97;5092248;28;20197;-60
2023/04/10 04:36:44;;;;;;;26.53;20.63;;;4.50;99.90;;;-141.84;77.74;19200.13;5091444;28;20778;-60
2023/04/10 04:39:12;;;;;;;27.13;20.63;;;4.50;99.90;;;-141.84;77.88;19226.53;5092136;28;20566;-60
2023/04/10 04:41:41;;;;;;;26.60;20.67;;;4.50;99.90;;;-141.84;77.59;19236.69;5092327;28;20333;-60
2023/04/10 04:44:09;;;;;;;29.03;21.10;;;4.50;99.90;;;-141.84;77.37;19208.25;5065582;28;20670;-60
2023/04/10 04:46:38;;;;;;;27.57;20.53;;;4.50;99.90;;;-141.84;77.38;19220.44;5063228;28;20600;-59
2023/04/10 04:49:07;;;;;;;26.07;19.93;;;4.50;99.90;;;-141.84;77.62;19202.16;5071558;28;20215;-61
2023/04/10 04:51:37;;;;;;;29.90;20.63;;;4.50;99.90;;;-141.84;77.94;19244.81;5071236;28;20242;-60
2023/04/10 04:54:05;;;;;;;25.13;19.70;;;4.50;99.90;;;-141.84;77.58;19220.44;5071034;28;20317;-59
2023/04/10 04:56:33;;;;;;;25.83;20.60;;;4.60;99.90;;;-141.84;77.02;19226.53;5071011;28;20225;-60
2023/04/10 04:59:01;;;;;;;27.07;20.00;;;4.60;99.90;;;-141.84;77.30;19206.22;5070645;28;20238;-60
2023/04/10 05:01:30;;;;;;;24.23;19.10;;;4.60;99.90;;;-141.84;77.22;19246.84;5070612;28;20241;-61
2023/04/10 05:03:59;;;;;;;26.10;20.47;;;4.70;99.90;;;-141.84;75.75;19265.13;5070865;28;20691;-59
2023/04/10 05:06:28;;;;;;;25.20;19.77;;;4.80;99.90;;;-141.84;75.44;19244.81;5070041;28;20255;-59
2023/04/10 05:08:56;;;;;;;25.30;19.73;;;4.80;99.90;;;-141.84;75.36;19244.81;5071031;28;20234;-60
2023/04/10 05:11:25;;;;;;;23.87;18.77;;;4.90;99.90;;;-141.84;75.29;19265.13;5070804;28;20602;-59
2023/04/10 05:13:53;;;;;;;24.10;19.47;;;5.00;99.90;;;-141.84;75.19;19257.00;5070069;28;20228;-61
2023/04/10 05:16:21;;;;;;;26.27;20.33;;;5.00;99.90;;;-141.84;75.58;19285.47;5070887;28;20253;-60
2023/04/10 05:18:50;;;;;;;24.13;19.60;;;5.00;99.90;;;-141.84;74.43;19301.72;5070172;28;20228;-61
2023/04/10 05:21:18;;;;;;;26.77;19.97;;;5.10;99.90;;;-141.84;73.94;19289.53;5069991;28;20239;-62
2023/04/10 05:23:48;;;;;;;25.03;19.97;;;5.30;99.90;;;-141.84;73.92;19263.09;5070598;28;20235;-60
2023/04/10 05:26:16;;;;;;;25.83;20.23;;;5.40;99.90;;;-141.84;73.25;19295.63;5090565;28;20722;-59
2023/04/10 05:28:44;;;;;;;25.77;20.00;;;5.50;99.90;;;-141.84;72.32;19385.03;5078829;28;20204;-61
2023/04/10 05:31:13;;;;;;;25.53;19.43;;;5.70;99.90;;;-141.84;72.11;19326.09;5071002;28;20227;-61
2023/04/10 05:33:41;;;;;;;25.87;19.80;;;5.90;99.90;;;-141.84;71.06;19358.63;5069784;28;20224;-61
2023/04/10 05:36:10;;;;;;;23.97;18.87;;;6.00;99.90;;;-141.84;70.27;19411.44;5070544;28;20231;-60
2023/04/10 05:38:38;;;;;;;21.00;17.17;;;6.30;99.90;;;-141.84;69.69;19380.97;5070448;28;20252;-64
2023/04/10 05:41:08;;;;;;;22.97;18.60;;;6.40;99.90;;;-141.84;69.20;19423.66;5070352;28;20231;-62
2023/04/10 05:43:36;;;;;;;25.37;19.73;;;6.60;99.90;;;-141.84;68.82;19411.44;5070131;28;20228;-60
2023/04/10 05:46:05;;;;;;;23.90;18.73;;;6.70;99.90;;;-141.84;68.45;19427.72;5070487;28;20214;-60
2023/04/10 05:48:33;;;;;;;23.70;19.47;;;6.90;99.90;;;-141.84;68.07;19431.78;5069662;28;20281;-60
2023/04/10 05:51:01;;;;;;;25.63;18.90;;;7.00;99.90;;;-141.84;67.76;19443.97;5070164;28;20290;-60
2023/04/10 05:53:31;;;;;;;23.53;17.73;;;7.20;99.90;;;-141.84;66.72;19488.69;5070044;28;20680;-59
2023/04/10 05:56:00;;;;;;;22.90;18.93;;;7.30;99.90;;;-141.84;66.02;19480.53;5070268;28;20246;-60
2023/04/10 05:58:30;;;;;;;22.03;17.73;;;7.40;99.90;;;-141.84;65.82;19492.75;5069970;28;20205;-61
2023/04/10 06:00:58;;;;;;;21.90;17.53;;;7.60;99.90;;;-141.84;65.56;19523.22;5070493;28;20581;-59
2023/04/10 06:03:29;;;;;;;22.87;18.73;;;7.70;99.90;;;-141.84;64.34;19541.50;5069456;28;20255;-60
2023/04/10 06:05:58;;;;;;;23.77;17.87;;;7.90;99.90;;;-141.84;64.48;19535.41;5069061;28;20578;-59
2023/04/10 06:08:26;;;;;;;22.23;18.43;;;8.00;99.90;;;-141.84;65.10;19535.41;5049916;28;20229;-60
2023/04/10 06:10:55;;;;;;;22.77;19.07;;;8.00;99.90;;;-141.84;65.31;19535.41;5068217;28;20224;-60
2023/04/10 06:13:23;;;;;;;21.90;18.17;;;8.00;99.90;;;-141.84;64.90;19600.44;5070339;28;20205;-59
2023/04/10 06:15:52;;;;;;;23.63;18.43;;;8.10;99.90;;;-141.84;65.21;19543.53;5069801;28;20598;-61
2023/04/10 06:18:20;;;;;;;23.00;17.90;;;8.10;99.90;;;-141.84;65.74;19541.50;5069567;28;20282;-59
2023/04/10 06:20:49;;;;;;;20.90;17.23;;;8.10;99.90;;;-141.84;66.50;19488.69;5064191;28;20732;-62
2023/04/10 06:23:17;;;;;;;21.50;17.87;;;8.00;99.90;;;-141.84;66.38;19494.78;5048703;28;20625;-61
2023/04/10 06:25:46;;;;;;;21.43;18.10;;;7.90;99.90;;;-141.84;66.40;19511.03;5049759;28;20193;-61
2023/04/10 06:28:14;;;;;;;23.77;18.37;;;7.90;99.90;;;-141.84;66.92;19511.03;5056483;28;20200;-60
2023/04/10 06:30:42;;;;;;;22.27;18.73;;;7.90;99.90;;;-141.84;66.20;19513.06;5068739;28;20612;-60
2023/04/10 06:33:12;;;;;;;23.07;18.07;;;7.90;99.90;;;-141.84;66.33;19535.41;5069280;28;20216;-60
2023/04/10 06:35:40;;;;;;;21.70;17.53;;;8.00;99.90;;;-141.84;66.22;19517.13;5069002;28;20217;-60
2023/04/10 06:38:09;;;;;;;20.30;16.50;;;8.10;99.90;;;-141.84;66.27;19547.59;5068852;28;20227;-62
2023/04/10 06:40:37;;;;;;;20.60;17.07;;;8.20;99.90;;;-141.84;65.75;19578.09;5069331;28;20263;-59
2023/04/10 06:43:05;;;;;;;21.37;17.27;;;8.30;99.90;;;-141.84;65.11;19565.91;5068451;28;20220;-59
2023/04/10 06:45:33;;;;;;;21.63;16.93;;;8.40;99.90;;;-141.84;64.29;19594.34;5068098;28;20690;-60
2023/04/10 06:48:02;;;;;;;22.87;17.87;;;8.50;99.90;;;-141.84;64.05;19598.41;5069507;28;20236;-61
2023/04/10 06:50:31;;;;;;;22.37;17.93;;;8.60;99.90;;;-141.84;63.40;19637.03;5069709;28;20244;-60
2023/04/10 06:53:00;;;;;;;21.17;17.30;;;8.70;99.90;;;-141.84;62.91;19659.38;5069510;28;20235;-60
2023/04/10 06:55:29;;;;;;;21.93;18.17;;;8.80;99.90;;;-141.84;62.75;19639.06;5069543;28;20738;-59
2023/04/10 06:57:57;;;;;;;23.97;18.50;;;8.90;99.90;;;-141.84;61.92;19667.50;5070200;28;20211;-61
2023/04/10 07:00:26;;;;;;;21.87;17.57;;;9.00;99.90;;;-141.84;62.20;19663.44;5069195;28;20309;-60
2023/04/10 07:02:54;;;;;;;21.87;18.07;;;9.10;99.90;;;-141.84;62.53;19669.53;5069489;28;20263;-61
2023/04/10 07:05:22;;;;;;;21.73;16.77;;;9.00;99.90;;;-141.84;62.62;19659.38;5069872;28;20227;-60
2023/04/10 07:07:52;;;;;;;22.30;17.83;;;9.10;99.90;;;-141.84;62.32;19706.13;5068826;28;20220;-59
2023/04/10 07:10:20;;;;;;;18.87;16.17;;;9.20;99.90;;;-141.84;62.50;19671.56;5070214;28;20201;-61
2023/04/10 07:12:48;;;;;;;22.77;18.50;;;9.30;99.90;;;-141.84;62.19;19677.66;5071080;28;20225;-62
2023/04/10 07:15:16;;;;;;;21.10;17.63;;;9.40;99.90;;;-141.84;61.84;19689.88;5072467;28;20228;-58
2023/04/10 07:17:45;;;;;;;22.37;18.00;;;9.40;99.90;;;-141.84;61.43;19714.25;5085018;28;20223;-60
2023/04/10 07:20:13;;;;;;;21.90;16.80;;;9.50;99.90;;;-141.84;61.92;19718.31;5093176;28;20254;-59
2023/04/10 07:22:41;;;;;;;21.43;17.70;;;9.50;99.90;;;-141.84;61.64;19728.47;5084537;28;20216;-60
2023/04/10 07:25:13;;;;;;;20.87;16.87;;;9.60;99.90;;;-141.84;61.58;19742.72;5073025;28;20327;-60
2023/04/10 07:27:41;;;;;;;19.93;16.43;;;9.70;99.90;;;-141.84;61.37;19756.94;5072716;28;20738;-60
2023/04/10 07:30:10;;;;;;;23.23;18.30;;;9.80;99.90;;;-141.84;60.57;19748.81;5072183;28;20221;-61
2023/04/10 07:32:41;;;;;;;21.73;17.90;;;9.90;99.90;;;-141.84;60.34;19781.31;5072765;28;20227;-60
2023/04/10 07:35:10;;;;;;;21.80;18.43;;;10.00;99.90;;;-141.84;60.24;19789.44;5072834;28;20317;-61
2023/04/10 07:37:39;;;;;;;21.67;17.90;;;10.20;99.90;;;-141.84;59.51;19813.84;5071458;28;20197;-63
2023/04/10 07:40:10;;;;;;;23.43;17.93;;;10.30;99.90;;;-141.84;59.84;19815.88;5072109;28;20204;-60
2023/04/10 07:42:39;;;;;;;19.03;16.70;;;10.40;99.90;;;-141.84;58.97;19860.59;5072434;28;20212;-64
2023/04/10 07:45:09;;;;;;;22.50;18.03;;;10.50;99.90;;;-141.84;58.19;19850.41;5071883;28;20228;-60
2023/04/10 07:47:37;;;;;;;20.80;17.73;;;10.70;99.90;;;-141.84;58.36;19862.63;5072048;28;20605;-61
2023/04/10 07:50:07;;;;;;;21.33;17.47;;;10.70;99.90;;;-141.84;58.60;19878.88;5072531;28;20224;-61
2023/04/10 07:52:36;;;;;;;20.37;17.43;;;10.80;99.90;;;-141.84;58.28;19909.34;5071002;28;20185;-60
2023/04/10 07:55:04;;;;;;;19.17;17.03;;;10.90;99.90;;;-141.84;57.68;19931.72;5072866;28;20205;-61
2023/04/10 07:57:35;;;;;;;21.07;17.40;;;11.00;99.90;;;-141.84;57.75;19956.09;5072204;28;20225;-62
2023/04/10 08:00:04;;;;;;;19.63;16.60;;;11.10;99.90;;;-141.84;56.94;19978.47;5071426;28;20754;-61
2023/04/10 08:02:32;;;;;;;21.13;17.00;;;11.20;99.90;;;-141.84;56.96;19943.91;5072094;28;20236;-61
2023/04/10 08:05:00;;;;;;;20.80;16.83;;;11.30;99.90;;;-141.84;56.65;19950.00;5072212;28;20247;-61
2023/04/10 08:07:29;;;;;;;21.63;17.40;;;11.30;99.90;;;-141.84;56.76;19950.00;5058673;28;20197;-60
2023/04/10 08:09:57;;;;;;;19.87;16.77;;;11.40;99.90;;;-141.84;56.41;19972.38;5052512;28;20208;-61
2023/04/10 08:12:25;;;;;;;21.60;17.90;;;11.50;99.90;;;-141.84;56.15;20000.81;5051537;28;20247;-62
2023/04/10 08:14:54;;;;;;;21.27;18.03;;;11.50;99.90;;;-141.84;56.08;20000.81;5070915;28;20233;-63
2023/04/10 08:17:23;;;;;;;19.53;17.27;;;11.60;99.90;;;-141.84;55.85;20047.56;5071498;28;20234;-62
2023/04/10 08:19:51;;;;;;;21.27;17.67;;;11.70;99.90;;;-141.84;55.51;20013.00;5071384;28;20225;-60
2023/04/10 08:22:19;;;;;;;22.17;18.43;;;11.80;99.90;;;-141.84;55.33;19998.78;5072577;28;20216;-61
2023/04/10 08:24:47;;;;;;;20.27;17.10;;;11.80;99.90;;;-141.84;54.86;20010.97;5070363;28;20244;-61
2023/04/10 08:27:15;;;;;;;18.00;16.00;;;11.90;99.90;;;-141.84;54.69;20045.53;5071255;28;20235;-61
2023/04/10 08:29:44;;;;;;;20.57;17.50;;;12.00;99.90;;;-141.84;54.63;20069.94;5070582;28;20227;-59
2023/04/10 08:32:13;;;;;;;20.63;17.37;;;12.10;99.90;;;-141.84;53.25;20094.31;5071103;28;20738;-60
2023/04/10 08:34:42;;;;;;;20.03;17.03;;;12.20;99.90;;;-141.84;53.21;20102.44;5071506;28;20216;-61
2023/04/10 08:37:11;;;;;;;18.70;16.00;;;12.30;99.90;;;-141.84;52.97;20124.81;5072077;28;20211;-61
2023/04/10 08:39:39;;;;;;;18.73;15.80;;;12.40;99.90;;;-141.84;52.37;20163.41;5071250;28;20225;-59
2023/04/10 08:42:08;;;;;;;18.80;15.87;;;12.50;99.90;;;-141.84;51.47;20139.03;5070674;28;20248;-60
2023/04/10 08:44:37;;;;;;;18.67;15.63;;;12.60;99.90;;;-141.84;51.70;20167.47;5070143;28;20232;-60
2023/04/10 08:47:08;;;;;;;17.30;15.13;;;12.70;99.90;;;-141.84;51.64;20163.41;5070870;28;20239;-60
2023/04/10 08:49:51;;;;;;;18.08;15.27;;;12.70;99.90;;;-141.84;50.38;20222.38;5071494;28;20578;-60
2023/04/10 08:52:24;;;;;;;17.63;14.75;;;12.90;99.90;;;-141.84;50.37;20256.91;5071898;28;20534;-61
2023/04/10 08:54:57;;;;;;;16.65;14.48;;;13.00;99.90;;;-141.84;49.87;20234.56;5070944;28;20219;-62
2023/04/10 08:57:26;;;;;;;17.25;15.10;;;13.10;99.90;;;-141.84;49.06;20246.75;5051075;28;20738;-59
2023/04/10 08:59:55;;;;;;;16.33;14.60;;;13.10;99.90;;;-141.84;49.11;20244.72;5070033;28;20589;-61
2023/04/10 09:02:24;;;;;;;17.80;14.47;;;13.20;99.90;;;-141.84;48.86;20234.56;5071228;28;20220;-61
2023/04/10 09:04:59;;;;;;;16.43;14.67;;;13.20;99.90;;;-141.84;48.47;20181.72;5070962;28;20688;-62
2023/04/10 09:07:27;;;;;;;15.40;13.73;;;13.20;99.90;;;-141.84;48.94;20236.59;5052282;28;20569;-59
2023/04/10 09:09:56;;;;;;;15.85;14.15;;;13.20;99.90;;;-141.84;48.71;20309.75;5071018;28;20588;-61
2023/04/10 09:12:25;;;;;;;15.80;14.10;;;13.30;99.90;;;-141.84;49.05;20289.44;5090865;28;20276;-59
2023/04/10 09:14:53;;;;;;;16.25;13.75;;;13.40;99.90;;;-141.84;47.42;20344.31;5090413;28;20228;-60
2023/04/10 09:17:23;;;;;;;15.50;12.88;;;13.60;99.90;;;-141.84;47.37;20374.81;5074277;28;20231;-60
2023/04/10 09:19:55;;;;;;;15.90;13.35;;;13.80;99.90;;;-141.84;47.14;20399.19;5070818;28;20499;-60
2023/04/10 09:22:31;;;;;;;14.52;12.88;;;13.90;99.90;;;-141.84;46.91;20360.59;5071957;28;20185;-60
2023/04/10 09:25:01;;;;;;;13.48;11.95;;;14.00;99.90;;;-141.84;46.82;20368.72;5070548;28;20275;-61
2023/04/10 09:27:32;;;;;;;15.00;13.30;;;14.00;99.90;;;-141.84;47.27;20415.47;5069984;28;20223;-60
2023/04/10 09:30:01;;;;;;;14.57;12.98;;;14.10;99.90;;;-141.84;47.34;20403.25;5070246;28;20278;-62
2023/04/10 09:32:39;;;;;;;15.05;13.45;;;14.10;99.90;;;-141.84;47.37;20411.41;5070355;28;20231;-61
2023/04/10 09:35:11;;;;;;;14.55;13.00;;;14.10;99.90;;;-141.84;47.34;20423.59;5070609;28;20244;-60
2023/04/10 09:37:41;;;;;;;12.52;11.23;;;14.20;99.90;;;-141.84;47.06;20445.94;5070731;28;20189;-60
2023/04/10 09:40:23;;;;;;;11.98;10.68;;;14.20;99.90;;;-141.84;46.88;20435.78;5070956;28;20208;-59
2023/04/10 09:42:52;;;;;;;12.95;10.73;;;14.30;99.90;;;-141.84;46.24;20478.47;5070674;28;20235;-61
2023/04/10 09:45:21;;;;;;;10.93;9.82;;;14.40;99.90;;;-141.84;45.70;20488.63;5069828;28;20256;-60
2023/04/10 09:48:03;;;;;;;11.10;9.98;;;14.50;99.90;;;-141.84;45.57;20492.72;5069899;28;20224;-60
2023/04/10 09:50:37;;;;;;;12.10;10.80;;;14.60;99.90;;;-141.84;45.90;20549.63;5070289;28;20228;-60
2023/04/10 09:53:08;;;;;;;12.50;11.20;;;14.70;99.90;;;-141.84;45.78;20500.84;5070363;28;20269;-61
2023/04/10 09:55:37;;;;;;;12.98;10.70;;;14.80;99.90;;;-141.84;45.14;20537.44;5070365;28;20207;-61
2023/04/10 09:58:06;;;;;;;10.48;9.38;;;14.80;99.90;;;-141.84;45.41;20498.81;5068724;28;20205;-61
2023/04/10 10:00:41;;;;;;;10.82;9.73;;;14.70;99.90;;;-141.84;45.51;20511.00;5068832;28;20708;-61
2023/04/10 10:03:11;;;;;;;10.68;9.57;;;14.80;99.90;;;-141.84;45.15;20523.19;5070171;28;20307;-58
2023/04/10 10:05:45;;;;;;;11.23;9.60;;;14.80;99.90;;;-141.84;45.43;20500.84;5076146;28;20250;-60
2023/04/10 10:08:15;;;;;;;11.43;10.25;;;14.70;99.90;;;-141.84;45.39;20488.63;5069599;28;20230;-60